createdAt,value
2023-03-23T15:59:19.904Z,98083.09
2023-03-23T16:02:18.231Z,98063.44
2023-03-23T16:05:09.103Z,98079.47
2023-03-23T16:07:58.716Z,98069.94
2023-03-23T16:10:48.790Z,98034.22
2023-03-23T16:13:38.079Z,98053.00
2023-03-23T16:16:32.378Z,98045.66
2023-03-23T16:19:24.661Z,98057.81
2023-03-23T16:22:14.321Z,98063.69
2023-03-23T16:25:04.860Z,98063.50
2023-03-23T16:27:54.701Z,98060.81
2023-03-23T16:30:46.009Z,98064.41
2023-03-23T16:33:36.962Z,98063.22
2023-03-23T16:36:26.297Z,98063.59
2023-03-23T16:39:15.965Z,98049.47
2023-03-23T16:42:05.494Z,98045.22
2023-03-23T16:44:55.046Z,98049.00
2023-03-23T16:47:45.210Z,98032.56
2023-03-23T16:50:39.587Z,98036.91
2023-03-23T16:53:28.846Z,98049.28
2023-03-23T16:56:18.114Z,98021.50
2023-03-23T16:59:07.624Z,98037.25
2023-03-23T17:02:00.667Z,98038.09
2023-03-23T17:04:49.882Z,98041.25
2023-03-23T17:07:43.244Z,97993.50
2023-03-23T17:10:33.233Z,98036.91
2023-03-23T17:13:28.834Z,98038.88
2023-03-23T17:16:18.186Z,98036.97
2023-03-23T17:19:08.237Z,98039.69
2023-03-23T17:21:57.449Z,98035.72
2023-03-23T17:24:48.991Z,98035.69
2023-03-23T17:27:39.246Z,98034.19
2023-03-23T17:30:44.581Z,98033.00
2023-03-23T17:33:33.840Z,98036.16
2023-03-23T17:36:23.268Z,98050.63
2023-03-23T17:39:12.602Z,98043.59
2023-03-23T17:42:04.133Z,98027.59
2023-03-23T17:44:56.495Z,98033.06
2023-03-23T17:47:45.718Z,98034.66
2023-03-23T17:50:35.519Z,98041.75
2023-03-23T17:53:25.595Z,98038.59
2023-03-23T17:56:17.011Z,98035.03
2023-03-23T17:59:08.056Z,98034.69
2023-03-23T18:01:58.067Z,98016.63
2023-03-23T18:04:47.986Z,98005.28
2023-03-23T18:07:37.426Z,98001.00
2023-03-23T18:10:26.837Z,98008.88
2023-03-23T18:13:16.022Z,98014.75
2023-03-23T18:16:08.732Z,98007.34
2023-03-23T18:18:58.053Z,98001.47
2023-03-23T18:21:47.458Z,97985.41
2023-03-23T18:24:36.690Z,97989.34
2023-03-23T18:27:26.298Z,97994.06
2023-03-23T18:30:15.640Z,97993.28
2023-03-23T18:33:06.313Z,97998.38
2023-03-23T18:35:59.724Z,97985.81
2023-03-23T18:38:50.496Z,97995.22
2023-03-23T18:41:40.112Z,97983.88
2023-03-23T18:44:30.509Z,97983.06
2023-03-23T18:47:19.813Z,97984.63
2023-03-23T18:50:12.561Z,97986.97
2023-03-23T18:53:01.830Z,98008.91
2023-03-23T18:55:52.118Z,98006.53
2023-03-23T18:58:41.752Z,98021.44
2023-03-23T19:01:31.060Z,98023.75
2023-03-23T19:04:22.445Z,98028.84
2023-03-23T19:07:14.839Z,98035.09
2023-03-23T19:10:04.215Z,98047.66
2023-03-23T19:12:53.989Z,98043.34
2023-03-23T19:15:43.526Z,98031.16
2023-03-23T19:18:33.024Z,98025.25
2023-03-23T19:21:25.529Z,98024.41
2023-03-23T19:24:16.970Z,98034.09
2023-03-23T19:27:06.839Z,98048.13
2023-03-23T19:29:56.816Z,98030.47
2023-03-23T19:32:46.696Z,98034.75
2023-03-23T19:35:36.352Z,98023.41
2023-03-23T19:38:25.918Z,98023.38
2023-03-23T19:41:19.085Z,98025.31
2023-03-23T19:44:08.629Z,98009.69
2023-03-23T19:46:58.204Z,98029.72
2023-03-23T19:49:48.332Z,98037.13
2023-03-23T19:52:38.067Z,98019.06
2023-03-23T19:55:27.980Z,98042.00
2023-03-23T19:58:18.712Z,98085.75
2023-03-23T20:01:08.787Z,98046.44
2023-03-23T20:04:00.094Z,98061.75
2023-03-23T20:06:51.126Z,98047.19
2023-03-23T20:09:41.107Z,98029.28
2023-03-23T20:12:30.550Z,98068.91
2023-03-23T20:15:21.668Z,98062.44
2023-03-23T20:18:14.668Z,98069.03
2023-03-23T20:21:06.730Z,98074.72
2023-03-23T20:23:59.523Z,98062.25
2023-03-23T20:26:49.082Z,98086.34
2023-03-23T20:29:38.418Z,98125.22
2023-03-23T20:32:32.783Z,98079.66
2023-03-23T20:35:22.585Z,98068.28
2023-03-23T20:38:12.031Z,98068.00
2023-03-23T20:41:02.681Z,98077.28
2023-03-23T20:43:52.087Z,98093.56
2023-03-23T20:46:41.372Z,98081.06
2023-03-23T20:49:32.195Z,98087.28
2023-03-23T20:52:21.509Z,98078.66
2023-03-23T20:55:11.080Z,98085.94
2023-03-23T20:58:00.439Z,98090.16
2023-03-23T21:00:57.126Z,98092.88
2023-03-23T21:03:46.503Z,98104.63
2023-03-23T21:06:37.340Z,98108.97
2023-03-23T21:09:26.721Z,98110.09
2023-03-23T21:12:15.957Z,98128.44
2023-03-23T21:15:06.512Z,98137.31
2023-03-23T21:17:55.942Z,98136.81
2023-03-23T21:20:45.847Z,98129.09
2023-03-23T21:23:38.417Z,98124.41
2023-03-23T21:26:30.825Z,98139.22
2023-03-23T21:29:22.309Z,98130.53
2023-03-23T21:32:11.498Z,98157.34
2023-03-23T21:35:02.754Z,98129.56
2023-03-23T21:37:53.704Z,98146.38
2023-03-23T21:40:45.297Z,98133.63
2023-03-23T21:43:34.791Z,98132.09
2023-03-23T21:46:24.299Z,98133.94
2023-03-23T21:49:15.436Z,98144.81
2023-03-23T21:52:04.916Z,98153.66
2023-03-23T21:54:54.720Z,98124.03
2023-03-23T21:57:45.277Z,98141.09
2023-03-23T22:00:34.660Z,98148.00
2023-03-23T22:03:25.534Z,98169.09
2023-03-23T22:06:19.012Z,98152.09
2023-03-23T22:09:09.765Z,98162.09
2023-03-23T22:11:59.153Z,98149.13
2023-03-23T22:14:49.711Z,98133.47
2023-03-23T22:17:39.524Z,98160.19
2023-03-23T22:20:29.574Z,98146.97
2023-03-23T22:23:18.940Z,98165.97
2023-03-23T22:26:09.541Z,98155.28
2023-03-23T22:29:00.495Z,98155.34
2023-03-23T22:31:51.375Z,98159.66
2023-03-23T22:34:41.128Z,98174.50
2023-03-23T22:37:30.499Z,98163.66
2023-03-23T22:40:20.057Z,98168.19
2023-03-23T22:43:10.038Z,98181.47
2023-03-23T22:45:59.480Z,98178.25
2023-03-23T22:48:51.885Z,98169.72
2023-03-23T22:51:41.516Z,98181.34
2023-03-23T22:54:31.110Z,98194.47
2023-03-23T22:57:20.385Z,98188.97
2023-03-23T23:00:15.736Z,98178.97
2023-03-23T23:03:05.085Z,98201.31
2023-03-23T23:05:58.177Z,98189.34
2023-03-23T23:08:48.662Z,98193.56
2023-03-23T23:11:38.267Z,98191.84
2023-03-23T23:14:28.375Z,98201.44
2023-03-23T23:17:17.586Z,98206.75
2023-03-23T23:20:12.911Z,98199.03
2023-03-23T23:23:04.991Z,98201.44
2023-03-23T23:25:55.201Z,98196.63
2023-03-23T23:28:45.624Z,98199.72
2023-03-23T23:31:35.074Z,98206.34
2023-03-23T23:34:25.482Z,98209.06
2023-03-23T23:37:15.598Z,98213.63
2023-03-23T23:40:08.285Z,98214.56
2023-03-23T23:42:57.664Z,98212.81
2023-03-23T23:45:47.104Z,98225.41
2023-03-23T23:48:36.401Z,98208.56
2023-03-23T23:51:27.453Z,98225.78
2023-03-23T23:54:22.723Z,98228.13
2023-03-23T23:57:13.305Z,98222.28
